Terminal Aerodrome Forecast
Issued by NWS

Home | Current Version | Previous Version | Graphics & Text | Print | Product List | Glossary On
Versions: 1 2 3 4 5 6 7 8 9 10 11 12 13 14 15 16 17 18 19 20 21 22 23 24 25 26 27
000
FTUS43 KBIS 251100 RRA
TAFMOT
TAF
KMOT 251142Z 2512/2612 14004KT P6SM OVC010
      TEMPO 2512/2515 SCT010 BKN015 OVC050
     FM251500 12009KT 4SM -SN OVC012
     FM251800 VRB06KT 3/4SM -SN OVC007
     FM252300 01018G24KT 3SM -SN OVC012
     FM260600 34010KT P6SM OVC008=

USA.gov is the U.S. government's official web portal to all federal, state and local government web resources and services.